sensor_id;sensor_type;location;lat;lon;timestamp;P1;durP1;ratioP1;P2;durP2;ratioP2
67804;SDS011;54603;45.638;11.714;2022-08-19T00:02:04;7.20;;;2.10;;
67804;SDS011;54603;45.638;11.714;2022-08-19T00:04:32;5.40;;;2.00;;
67804;SDS011;54603;45.638;11.714;2022-08-19T00:07:02;7.00;;;2.20;;
67804;SDS011;54603;45.638;11.714;2022-08-19T00:09:28;5.60;;;2.10;;
67804;SDS011;54603;45.638;11.714;2022-08-19T00:11:54;5.90;;;2.10;;
67804;SDS011;54603;45.638;11.714;2022-08-19T00:14:21;8.20;;;1.80;;
67804;SDS011;54603;45.638;11.714;2022-08-19T00:16:49;6.20;;;1.90;;
67804;SDS011;54603;45.638;11.714;2022-08-19T00:19:16;6.50;;;1.90;;
67804;SDS011;54603;45.638;11.714;2022-08-19T00:21:42;7.00;;;2.10;;
67804;SDS011;54603;45.638;11.714;2022-08-19T00:24:08;5.50;;;1.70;;
67804;SDS011;54603;45.638;11.714;2022-08-19T00:26:35;7.70;;;1.90;;
67804;SDS011;54603;45.638;11.714;2022-08-19T00:29:02;5.00;;;2.10;;
67804;SDS011;54603;45.638;11.714;2022-08-19T00:31:30;5.10;;;1.80;;
67804;SDS011;54603;45.638;11.714;2022-08-19T00:33:56;6.40;;;2.20;;
67804;SDS011;54603;45.638;11.714;2022-08-19T00:36:22;6.80;;;1.90;;
67804;SDS011;54603;45.638;11.714;2022-08-19T00:38:47;6.00;;;2.10;;
67804;SDS011;54603;45.638;11.714;2022-08-19T00:41:15;4.10;;;1.80;;
67804;SDS011;54603;45.638;11.714;2022-08-19T00:43:43;4.40;;;2.00;;
67804;SDS011;54603;45.638;11.714;2022-08-19T00:46:08;4.60;;;1.80;;
67804;SDS011;54603;45.638;11.714;2022-08-19T00:48:34;6.00;;;2.50;;
67804;SDS011;54603;45.638;11.714;2022-08-19T00:51:03;7.50;;;1.90;;
67804;SDS011;54603;45.638;11.714;2022-08-19T00:53:29;4.80;;;1.80;;
67804;SDS011;54603;45.638;11.714;2022-08-19T00:55:58;4.60;;;1.60;;
67804;SDS011;54603;45.638;11.714;2022-08-19T00:58:26;4.20;;;1.90;;
67804;SDS011;54603;45.638;11.714;2022-08-19T01:00:54;4.90;;;1.80;;
67804;SDS011;54603;45.638;11.714;2022-08-19T01:03:20;4.60;;;1.70;;
67804;SDS011;54603;45.638;11.714;2022-08-19T01:05:47;3.60;;;1.50;;
67804;SDS011;54603;45.638;11.714;2022-08-19T01:08:15;4.90;;;1.60;;
67804;SDS011;54603;45.638;11.714;2022-08-19T01:10:52;3.50;;;1.60;;
67804;SDS011;54603;45.638;11.714;2022-08-19T01:13:21;5.00;;;1.60;;
67804;SDS011;54603;45.638;11.714;2022-08-19T01:15:51;4.10;;;1.80;;
67804;SDS011;54603;45.638;11.714;2022-08-19T01:18:19;8.10;;;1.80;;
67804;SDS011;54603;45.638;11.714;2022-08-19T01:20:45;4.80;;;1.60;;
67804;SDS011;54603;45.638;11.714;2022-08-19T01:23:12;4.10;;;1.70;;
67804;SDS011;54603;45.638;11.714;2022-08-19T01:25:44;6.30;;;1.80;;
67804;SDS011;54603;45.638;11.714;2022-08-19T01:28:16;4.00;;;1.90;;
67804;SDS011;54603;45.638;11.714;2022-08-19T01:30:43;4.80;;;1.40;;
67804;SDS011;54603;45.638;11.714;2022-08-19T01:33:09;5.60;;;1.70;;
67804;SDS011;54603;45.638;11.714;2022-08-19T01:35:35;4.20;;;1.90;;
67804;SDS011;54603;45.638;11.714;2022-08-19T01:38:06;3.90;;;1.80;;
67804;SDS011;54603;45.638;11.714;2022-08-19T01:40:49;5.50;;;2.00;;
67804;SDS011;54603;45.638;11.714;2022-08-19T01:43:15;5.00;;;1.70;;
67804;SDS011;54603;45.638;11.714;2022-08-19T01:45:41;6.70;;;1.70;;
67804;SDS011;54603;45.638;11.714;2022-08-19T01:48:08;4.30;;;1.80;;
67804;SDS011;54603;45.638;11.714;2022-08-19T01:50:34;5.90;;;2.20;;
67804;SDS011;54603;45.638;11.714;2022-08-19T01:53:01;5.90;;;2.10;;
67804;SDS011;54603;45.638;11.714;2022-08-19T01:55:29;5.90;;;1.90;;
67804;SDS011;54603;45.638;11.714;2022-08-19T01:57:55;6.00;;;2.00;;
67804;SDS011;54603;45.638;11.714;2022-08-19T02:00:24;5.50;;;2.20;;
67804;SDS011;54603;45.638;11.714;2022-08-19T02:02:56;5.20;;;2.00;;
67804;SDS011;54603;45.638;11.714;2022-08-19T02:05:22;4.60;;;1.60;;
67804;SDS011;54603;45.638;11.714;2022-08-19T02:07:48;5.30;;;1.70;;
67804;SDS011;54603;45.638;11.714;2022-08-19T02:10:17;4.00;;;2.00;;
67804;SDS011;54603;45.638;11.714;2022-08-19T02:12:46;5.10;;;1.90;;
67804;SDS011;54603;45.638;11.714;2022-08-19T02:15:11;4.70;;;1.80;;
67804;SDS011;54603;45.638;11.714;2022-08-19T02:17:37;4.70;;;1.60;;
67804;SDS011;54603;45.638;11.714;2022-08-19T02:20:04;4.20;;;1.60;;
67804;SDS011;54603;45.638;11.714;2022-08-19T02:22:34;4.00;;;1.60;;
67804;SDS011;54603;45.638;11.714;2022-08-19T02:25:00;3.50;;;1.70;;
67804;SDS011;54603;45.638;11.714;2022-08-19T02:27:26;5.80;;;1.90;;
67804;SDS011;54603;45.638;11.714;2022-08-19T02:29:52;4.30;;;1.80;;
67804;SDS011;54603;45.638;11.714;2022-08-19T02:32:24;4.90;;;1.80;;
67804;SDS011;54603;45.638;11.714;2022-08-19T02:34:49;5.80;;;2.00;;
67804;SDS011;54603;45.638;11.714;2022-08-19T02:37:15;6.00;;;2.00;;
67804;SDS011;54603;45.638;11.714;2022-08-19T02:39:59;7.00;;;1.80;;
67804;SDS011;54603;45.638;11.714;2022-08-19T02:42:26;4.40;;;1.70;;
67804;SDS011;54603;45.638;11.714;2022-08-19T02:44:52;4.50;;;1.60;;
67804;SDS011;54603;45.638;11.714;2022-08-19T02:47:17;4.70;;;1.70;;
67804;SDS011;54603;45.638;11.714;2022-08-19T02:49:44;5.00;;;1.60;;
67804;SDS011;54603;45.638;11.714;2022-08-19T02:52:10;4.40;;;1.60;;
67804;SDS011;54603;45.638;11.714;2022-08-19T02:54:36;4.70;;;1.70;;
67804;SDS011;54603;45.638;11.714;2022-08-19T02:57:07;3.40;;;1.60;;
67804;SDS011;54603;45.638;11.714;2022-08-19T02:59:33;3.20;;;1.40;;
67804;SDS011;54603;45.638;11.714;2022-08-19T03:01:59;4.80;;;1.60;;
67804;SDS011;54603;45.638;11.714;2022-08-19T03:04:24;6.50;;;1.90;;
67804;SDS011;54603;45.638;11.714;2022-08-19T03:06:50;4.40;;;1.80;;
67804;SDS011;54603;45.638;11.714;2022-08-19T03:09:17;4.90;;;1.70;;
67804;SDS011;54603;45.638;11.714;2022-08-19T03:11:46;4.70;;;1.70;;
67804;SDS011;54603;45.638;11.714;2022-08-19T03:14:12;5.30;;;1.60;;
67804;SDS011;54603;45.638;11.714;2022-08-19T03:16:45;3.00;;;1.70;;
67804;SDS011;54603;45.638;11.714;2022-08-19T03:19:26;6.10;;;1.80;;
67804;SDS011;54603;45.638;11.714;2022-08-19T03:21:52;5.30;;;1.60;;
67804;SDS011;54603;45.638;11.714;2022-08-19T03:24:18;8.00;;;2.10;;
67804;SDS011;54603;45.638;11.714;2022-08-19T03:26:46;5.50;;;1.70;;
67804;SDS011;54603;45.638;11.714;2022-08-19T03:29:14;8.90;;;2.00;;
67804;SDS011;54603;45.638;11.714;2022-08-19T03:31:41;6.00;;;2.00;;
67804;SDS011;54603;45.638;11.714;2022-08-19T03:34:08;3.40;;;1.60;;
67804;SDS011;54603;45.638;11.714;2022-08-19T03:36:36;4.00;;;1.90;;
67804;SDS011;54603;45.638;11.714;2022-08-19T03:39:02;6.00;;;1.70;;
67804;SDS011;54603;45.638;11.714;2022-08-19T03:41:33;3.40;;;1.50;;
67804;SDS011;54603;45.638;11.714;2022-08-19T03:44:07;4.30;;;1.90;;
67804;SDS011;54603;45.638;11.714;2022-08-19T03:46:33;5.90;;;1.70;;
67804;SDS011;54603;45.638;11.714;2022-08-19T03:49:00;3.10;;;1.60;;
67804;SDS011;54603;45.638;11.714;2022-08-19T03:51:33;3.50;;;1.60;;
67804;SDS011;54603;45.638;11.714;2022-08-19T03:54:03;4.40;;;1.70;;
67804;SDS011;54603;45.638;11.714;2022-08-19T03:56:32;4.00;;;1.50;;
67804;SDS011;54603;45.638;11.714;2022-08-19T03:58:59;4.70;;;1.80;;
67804;SDS011;54603;45.638;11.714;2022-08-19T04:01:26;3.80;;;1.50;;
67804;SDS011;54603;45.638;11.714;2022-08-19T04:03:53;2.60;;;1.40;;
67804;SDS011;54603;45.638;11.714;2022-08-19T04:06:32;3.10;;;1.50;;
67804;SDS011;54603;45.638;11.714;2022-08-19T04:09:00;2.90;;;1.40;;
67804;SDS011;54603;45.638;11.714;2022-08-19T04:11:28;4.20;;;1.80;;
67804;SDS011;54603;45.638;11.714;2022-08-19T04:13:57;3.20;;;1.40;;
67804;SDS011;54603;45.638;11.714;2022-08-19T04:16:24;3.90;;;1.40;;
67804;SDS011;54603;45.638;11.714;2022-08-19T04:18:53;2.60;;;1.40;;
67804;SDS011;54603;45.638;11.714;2022-08-19T04:21:20;4.80;;;1.50;;
67804;SDS011;54603;45.638;11.714;2022-08-19T04:23:47;3.70;;;1.50;;
67804;SDS011;54603;45.638;11.714;2022-08-19T04:26:18;4.10;;;1.80;;
67804;SDS011;54603;45.638;11.714;2022-08-19T04:28:45;3.20;;;1.10;;
67804;SDS011;54603;45.638;11.714;2022-08-19T04:31:18;4.20;;;1.40;;
67804;SDS011;54603;45.638;11.714;2022-08-19T04:33:45;3.60;;;1.90;;
67804;SDS011;54603;45.638;11.714;2022-08-19T04:36:17;3.80;;;1.40;;
67804;SDS011;54603;45.638;11.714;2022-08-19T04:38:45;4.30;;;1.80;;
67804;SDS011;54603;45.638;11.714;2022-08-19T04:41:14;4.70;;;1.60;;
67804;SDS011;54603;45.638;11.714;2022-08-19T04:43:58;3.80;;;1.50;;
67804;SDS011;54603;45.638;11.714;2022-08-19T04:46:24;3.40;;;1.50;;
67804;SDS011;54603;45.638;11.714;2022-08-19T04:48:49;10.30;;;1.50;;
67804;SDS011;54603;45.638;11.714;2022-08-19T04:51:15;4.00;;;1.50;;
67804;SDS011;54603;45.638;11.714;2022-08-19T04:53:43;5.80;;;1.60;;
67804;SDS011;54603;45.638;11.714;2022-08-19T04:56:10;7.30;;;2.00;;
67804;SDS011;54603;45.638;11.714;2022-08-19T04:58:38;4.10;;;1.60;;
67804;SDS011;54603;45.638;11.714;2022-08-19T05:01:07;4.90;;;1.60;;
67804;SDS011;54603;45.638;11.714;2022-08-19T05:03:36;4.50;;;1.60;;
67804;SDS011;54603;45.638;11.714;2022-08-19T05:06:06;3.20;;;1.60;;
67804;SDS011;54603;45.638;11.714;2022-08-19T05:08:35;6.00;;;1.80;;
67804;SDS011;54603;45.638;11.714;2022-08-19T05:11:06;3.60;;;1.60;;
67804;SDS011;54603;45.638;11.714;2022-08-19T05:13:34;4.10;;;1.60;;
67804;SDS011;54603;45.638;11.714;2022-08-19T05:16:00;5.30;;;1.60;;
67804;SDS011;54603;45.638;11.714;2022-08-19T05:18:26;4.00;;;1.60;;
67804;SDS011;54603;45.638;11.714;2022-08-19T05:21:11;3.80;;;1.50;;
67804;SDS011;54603;45.638;11.714;2022-08-19T05:23:56;3.20;;;1.50;;
67804;SDS011;54603;45.638;11.714;2022-08-19T05:26:23;6.60;;;1.90;;
67804;SDS011;54603;45.638;11.714;2022-08-19T05:28:51;5.90;;;1.60;;
67804;SDS011;54603;45.638;11.714;2022-08-19T05:31:18;2.80;;;1.40;;
67804;SDS011;54603;45.638;11.714;2022-08-19T05:33:44;3.50;;;1.80;;
67804;SDS011;54603;45.638;11.714;2022-08-19T05:36:09;4.90;;;1.60;;
67804;SDS011;54603;45.638;11.714;2022-08-19T05:38:35;3.00;;;1.20;;
67804;SDS011;54603;45.638;11.714;2022-08-19T05:41:11;3.30;;;1.50;;
67804;SDS011;54603;45.638;11.714;2022-08-19T05:43:38;4.00;;;1.40;;
67804;SDS011;54603;45.638;11.714;2022-08-19T05:46:16;3.20;;;1.60;;
67804;SDS011;54603;45.638;11.714;2022-08-19T05:48:47;4.00;;;1.40;;
67804;SDS011;54603;45.638;11.714;2022-08-19T05:51:14;3.70;;;1.50;;
67804;SDS011;54603;45.638;11.714;2022-08-19T05:53:40;4.30;;;1.60;;
67804;SDS011;54603;45.638;11.714;2022-08-19T05:56:07;4.60;;;1.50;;
67804;SDS011;54603;45.638;11.714;2022-08-19T05:58:34;3.70;;;1.40;;
67804;SDS011;54603;45.638;11.714;2022-08-19T06:01:04;5.10;;;1.50;;
67804;SDS011;54603;45.638;11.714;2022-08-19T06:03:35;3.60;;;1.60;;
67804;SDS011;54603;45.638;11.714;2022-08-19T06:06:03;6.40;;;1.70;;
67804;SDS011;54603;45.638;11.714;2022-08-19T06:08:29;5.10;;;1.80;;
67804;SDS011;54603;45.638;11.714;2022-08-19T06:10:55;5.20;;;1.90;;
67804;SDS011;54603;45.638;11.714;2022-08-19T06:13:21;3.60;;;1.60;;
67804;SDS011;54603;45.638;11.714;2022-08-19T06:15:50;5.30;;;1.50;;
67804;SDS011;54603;45.638;11.714;2022-08-19T06:18:41;4.80;;;1.50;;
67804;SDS011;54603;45.638;11.714;2022-08-19T06:22:12;4.30;;;1.70;;
67804;SDS011;54603;45.638;11.714;2022-08-19T06:25:17;5.10;;;1.80;;
67804;SDS011;54603;45.638;11.714;2022-08-19T06:27:55;5.00;;;1.40;;
67804;SDS011;54603;45.638;11.714;2022-08-19T06:30:20;5.30;;;1.40;;
67804;SDS011;54603;45.638;11.714;2022-08-19T06:32:46;4.50;;;1.90;;
67804;SDS011;54603;45.638;11.714;2022-08-19T06:35:12;9.50;;;1.90;;
67804;SDS011;54603;45.638;11.714;2022-08-19T06:37:40;3.70;;;1.60;;
67804;SDS011;54603;45.638;11.714;2022-08-19T06:40:06;3.30;;;1.50;;
67804;SDS011;54603;45.638;11.714;2022-08-19T06:42:38;4.70;;;1.80;;
67804;SDS011;54603;45.638;11.714;2022-08-19T06:45:04;5.50;;;1.90;;
67804;SDS011;54603;45.638;11.714;2022-08-19T06:47:33;6.60;;;1.90;;
67804;SDS011;54603;45.638;11.714;2022-08-19T06:50:01;4.10;;;1.70;;
67804;SDS011;54603;45.638;11.714;2022-08-19T06:52:31;4.30;;;1.40;;
67804;SDS011;54603;45.638;11.714;2022-08-19T06:54:59;3.10;;;1.40;;
67804;SDS011;54603;45.638;11.714;2022-08-19T06:57:24;6.60;;;1.70;;
67804;SDS011;54603;45.638;11.714;2022-08-19T06:59:51;3.30;;;1.60;;
67804;SDS011;54603;45.638;11.714;2022-08-19T07:02:18;4.90;;;1.60;;
67804;SDS011;54603;45.638;11.714;2022-08-19T07:04:46;4.90;;;1.90;;
67804;SDS011;54603;45.638;11.714;2022-08-19T07:07:13;3.20;;;1.40;;
67804;SDS011;54603;45.638;11.714;2022-08-19T07:09:41;4.60;;;1.70;;
67804;SDS011;54603;45.638;11.714;2022-08-19T07:12:09;4.60;;;1.40;;
67804;SDS011;54603;45.638;11.714;2022-08-19T07:14:39;3.50;;;1.60;;
67804;SDS011;54603;45.638;11.714;2022-08-19T07:17:06;4.20;;;1.70;;
67804;SDS011;54603;45.638;11.714;2022-08-19T07:19:33;5.00;;;1.70;;
67804;SDS011;54603;45.638;11.714;2022-08-19T07:22:01;4.60;;;1.40;;
67804;SDS011;54603;45.638;11.714;2022-08-19T07:24:28;4.70;;;1.90;;
67804;SDS011;54603;45.638;11.714;2022-08-19T07:26:56;3.20;;;1.50;;
67804;SDS011;54603;45.638;11.714;2022-08-19T07:29:26;6.40;;;1.50;;
67804;SDS011;54603;45.638;11.714;2022-08-19T07:31:53;4.10;;;1.60;;
67804;SDS011;54603;45.638;11.714;2022-08-19T07:34:21;4.60;;;1.50;;
67804;SDS011;54603;45.638;11.714;2022-08-19T07:36:49;4.50;;;1.60;;
67804;SDS011;54603;45.638;11.714;2022-08-19T07:39:17;6.80;;;1.60;;
67804;SDS011;54603;45.638;11.714;2022-08-19T07:41:46;3.90;;;1.50;;
67804;SDS011;54603;45.638;11.714;2022-08-19T07:44:14;3.30;;;1.60;;
67804;SDS011;54603;45.638;11.714;2022-08-19T07:46:43;3.90;;;1.40;;
67804;SDS011;54603;45.638;11.714;2022-08-19T07:49:11;4.20;;;1.40;;
67804;SDS011;54603;45.638;11.714;2022-08-19T07:51:43;5.90;;;1.80;;
67804;SDS011;54603;45.638;11.714;2022-08-19T07:54:11;2.90;;;1.50;;
67804;SDS011;54603;45.638;11.714;2022-08-19T07:56:37;3.80;;;1.60;;
67804;SDS011;54603;45.638;11.714;2022-08-19T07:59:03;5.90;;;1.70;;
67804;SDS011;54603;45.638;11.714;2022-08-19T08:01:30;4.90;;;1.70;;
67804;SDS011;54603;45.638;11.714;2022-08-19T08:03:56;5.50;;;1.60;;
67804;SDS011;54603;45.638;11.714;2022-08-19T08:06:45;3.50;;;1.50;;
67804;SDS011;54603;45.638;11.714;2022-08-19T08:09:31;3.10;;;1.40;;
67804;SDS011;54603;45.638;11.714;2022-08-19T08:12:04;3.50;;;1.50;;
67804;SDS011;54603;45.638;11.714;2022-08-19T08:14:44;3.90;;;1.70;;
67804;SDS011;54603;45.638;11.714;2022-08-19T08:17:15;3.70;;;1.50;;
67804;SDS011;54603;45.638;11.714;2022-08-19T08:19:42;2.60;;;1.40;;
67804;SDS011;54603;45.638;11.714;2022-08-19T08:22:09;3.80;;;1.50;;
67804;SDS011;54603;45.638;11.714;2022-08-19T08:24:56;5.50;;;1.60;;
67804;SDS011;54603;45.638;11.714;2022-08-19T08:27:23;3.80;;;1.60;;
67804;SDS011;54603;45.638;11.714;2022-08-19T08:29:49;5.80;;;1.80;;
67804;SDS011;54603;45.638;11.714;2022-08-19T08:32:15;2.30;;;1.20;;
67804;SDS011;54603;45.638;11.714;2022-08-19T08:34:41;3.20;;;1.50;;
67804;SDS011;54603;45.638;11.714;2022-08-19T08:37:07;2.60;;;1.40;;
67804;SDS011;54603;45.638;11.714;2022-08-19T08:39:33;2.70;;;1.50;;
67804;SDS011;54603;45.638;11.714;2022-08-19T08:42:34;3.40;;;1.40;;
67804;SDS011;54603;45.638;11.714;2022-08-19T08:47:36;4.00;;;1.50;;
67804;SDS011;54603;45.638;11.714;2022-08-19T08:50:07;2.00;;;1.40;;
67804;SDS011;54603;45.638;11.714;2022-08-19T08:52:41;1.60;;;1.10;;
67804;SDS011;54603;45.638;11.714;2022-08-19T08:55:10;2.30;;;1.40;;
67804;SDS011;54603;45.638;11.714;2022-08-19T09:00:04;1.80;;;1.40;;
67804;SDS011;54603;45.638;11.714;2022-08-19T09:02:40;3.90;;;1.40;;
67804;SDS011;54603;45.638;11.714;2022-08-19T09:05:06;2.50;;;1.40;;
67804;SDS011;54603;45.638;11.714;2022-08-19T09:10:44;3.70;;;1.40;;
67804;SDS011;54603;45.638;11.714;2022-08-19T09:16:21;4.60;;;1.50;;
67804;SDS011;54603;45.638;11.714;2022-08-19T09:19:04;5.30;;;1.50;;
67804;SDS011;54603;45.638;11.714;2022-08-19T09:21:32;4.00;;;1.40;;
67804;SDS011;54603;45.638;11.714;2022-08-19T09:23:58;4.50;;;1.50;;
67804;SDS011;54603;45.638;11.714;2022-08-19T09:26:24;6.00;;;1.50;;
67804;SDS011;54603;45.638;11.714;2022-08-19T09:28:52;4.10;;;1.30;;
67804;SDS011;54603;45.638;11.714;2022-08-19T09:31:24;4.70;;;1.50;;
67804;SDS011;54603;45.638;11.714;2022-08-19T09:33:51;6.00;;;1.70;;
67804;SDS011;54603;45.638;11.714;2022-08-19T09:36:19;8.70;;;1.80;;
67804;SDS011;54603;45.638;11.714;2022-08-19T09:38:48;4.50;;;1.90;;
67804;SDS011;54603;45.638;11.714;2022-08-19T09:41:15;7.80;;;2.00;;
67804;SDS011;54603;45.638;11.714;2022-08-19T09:43:47;4.20;;;1.80;;
67804;SDS011;54603;45.638;11.714;2022-08-19T09:46:17;3.70;;;2.00;;
67804;SDS011;54603;45.638;11.714;2022-08-19T09:48:46;4.30;;;1.40;;
67804;SDS011;54603;45.638;11.714;2022-08-19T09:51:14;5.30;;;2.00;;
67804;SDS011;54603;45.638;11.714;2022-08-19T09:53:44;4.10;;;1.80;;
67804;SDS011;54603;45.638;11.714;2022-08-19T09:56:11;3.30;;;1.70;;
67804;SDS011;54603;45.638;11.714;2022-08-19T09:58:37;4.50;;;1.40;;
67804;SDS011;54603;45.638;11.714;2022-08-19T10:01:03;2.70;;;1.50;;
67804;SDS011;54603;45.638;11.714;2022-08-19T10:03:30;5.90;;;2.10;;
67804;SDS011;54603;45.638;11.714;2022-08-19T10:05:57;5.60;;;1.50;;
67804;SDS011;54603;45.638;11.714;2022-08-19T10:08:28;3.60;;;1.60;;
67804;SDS011;54603;45.638;11.714;2022-08-19T10:11:09;3.60;;;1.40;;
67804;SDS011;54603;45.638;11.714;2022-08-19T10:13:35;3.10;;;1.40;;
67804;SDS011;54603;45.638;11.714;2022-08-19T10:16:08;5.20;;;1.70;;
67804;SDS011;54603;45.638;11.714;2022-08-19T10:18:36;5.20;;;1.80;;
67804;SDS011;54603;45.638;11.714;2022-08-19T10:21:06;5.20;;;1.40;;
67804;SDS011;54603;45.638;11.714;2022-08-19T10:23:43;4.80;;;1.80;;
67804;SDS011;54603;45.638;11.714;2022-08-19T10:26:19;4.60;;;1.60;;
67804;SDS011;54603;45.638;11.714;2022-08-19T10:28:46;4.80;;;1.90;;
67804;SDS011;54603;45.638;11.714;2022-08-19T10:31:13;3.10;;;1.50;;
67804;SDS011;54603;45.638;11.714;2022-08-19T10:33:42;2.80;;;1.30;;
67804;SDS011;54603;45.638;11.714;2022-08-19T10:36:21;3.50;;;1.60;;
67804;SDS011;54603;45.638;11.714;2022-08-19T10:38:49;4.20;;;1.60;;
67804;SDS011;54603;45.638;11.714;2022-08-19T10:41:25;2.60;;;1.30;;
67804;SDS011;54603;45.638;11.714;2022-08-19T10:43:54;5.40;;;1.40;;
67804;SDS011;54603;45.638;11.714;2022-08-19T10:46:24;3.20;;;1.40;;
67804;SDS011;54603;45.638;11.714;2022-08-19T10:48:51;3.70;;;1.50;;
67804;SDS011;54603;45.638;11.714;2022-08-19T10:51:18;2.20;;;1.30;;
67804;SDS011;54603;45.638;11.714;2022-08-19T10:54:03;2.90;;;1.40;;
67804;SDS011;54603;45.638;11.714;2022-08-19T10:56:29;6.00;;;1.50;;
67804;SDS011;54603;45.638;11.714;2022-08-19T10:59:14;3.70;;;1.80;;
67804;SDS011;54603;45.638;11.714;2022-08-19T11:01:48;3.80;;;1.50;;
67804;SDS011;54603;45.638;11.714;2022-08-19T11:04:14;3.00;;;1.40;;
67804;SDS011;54603;45.638;11.714;2022-08-19T11:06:42;4.80;;;1.70;;
67804;SDS011;54603;45.638;11.714;2022-08-19T11:09:12;5.50;;;1.70;;
67804;SDS011;54603;45.638;11.714;2022-08-19T11:11:42;3.30;;;1.40;;
67804;SDS011;54603;45.638;11.714;2022-08-19T11:14:12;3.50;;;1.50;;
67804;SDS011;54603;45.638;11.714;2022-08-19T11:16:43;3.30;;;1.70;;
67804;SDS011;54603;45.638;11.714;2022-08-19T11:19:09;4.00;;;1.60;;
67804;SDS011;54603;45.638;11.714;2022-08-19T11:21:48;3.50;;;1.40;;
67804;SDS011;54603;45.638;11.714;2022-08-19T11:24:19;5.00;;;1.40;;
67804;SDS011;54603;45.638;11.714;2022-08-19T11:26:50;2.80;;;1.30;;
67804;SDS011;54603;45.638;11.714;2022-08-19T11:29:19;2.50;;;1.50;;
67804;SDS011;54603;45.638;11.714;2022-08-19T11:32:09;3.00;;;1.30;;
67804;SDS011;54603;45.638;11.714;2022-08-19T11:34:35;2.50;;;1.50;;
67804;SDS011;54603;45.638;11.714;2022-08-19T11:37:02;4.60;;;1.70;;
67804;SDS011;54603;45.638;11.714;2022-08-19T11:39:29;3.40;;;1.40;;
67804;SDS011;54603;45.638;11.714;2022-08-19T11:41:57;3.60;;;1.60;;
67804;SDS011;54603;45.638;11.714;2022-08-19T11:44:24;3.60;;;1.70;;
67804;SDS011;54603;45.638;11.714;2022-08-19T11:46:53;4.50;;;1.70;;
67804;SDS011;54603;45.638;11.714;2022-08-19T11:49:20;4.10;;;1.50;;
67804;SDS011;54603;45.638;11.714;2022-08-19T11:51:46;3.30;;;1.30;;
67804;SDS011;54603;45.638;11.714;2022-08-19T11:54:16;12.60;;;1.40;;
67804;SDS011;54603;45.638;11.714;2022-08-19T11:56:43;2.60;;;1.40;;
67804;SDS011;54603;45.638;11.714;2022-08-19T11:59:09;3.30;;;1.80;;
67804;SDS011;54603;45.638;11.714;2022-08-19T12:01:35;3.60;;;1.80;;
67804;SDS011;54603;45.638;11.714;2022-08-19T12:04:01;4.70;;;1.50;;
67804;SDS011;54603;45.638;11.714;2022-08-19T12:06:51;3.60;;;1.60;;
67804;SDS011;54603;45.638;11.714;2022-08-19T12:09:17;4.90;;;1.60;;
67804;SDS011;54603;45.638;11.714;2022-08-19T12:11:42;6.90;;;1.30;;
67804;SDS011;54603;45.638;11.714;2022-08-19T12:14:18;3.60;;;1.50;;
67804;SDS011;54603;45.638;11.714;2022-08-19T12:16:44;3.40;;;1.50;;
67804;SDS011;54603;45.638;11.714;2022-08-19T12:19:11;5.90;;;1.60;;
67804;SDS011;54603;45.638;11.714;2022-08-19T12:21:46;2.10;;;1.20;;
67804;SDS011;54603;45.638;11.714;2022-08-19T12:24:11;5.00;;;1.50;;
67804;SDS011;54603;45.638;11.714;2022-08-19T12:26:37;7.50;;;1.60;;
67804;SDS011;54603;45.638;11.714;2022-08-19T12:29:03;3.70;;;1.50;;
67804;SDS011;54603;45.638;11.714;2022-08-19T12:31:34;4.20;;;1.30;;
67804;SDS011;54603;45.638;11.714;2022-08-19T12:34:00;4.00;;;1.10;;
67804;SDS011;54603;45.638;11.714;2022-08-19T12:36:28;2.30;;;1.30;;
67804;SDS011;54603;45.638;11.714;2022-08-19T12:38:58;4.70;;;1.10;;
67804;SDS011;54603;45.638;11.714;2022-08-19T12:41:42;2.20;;;1.10;;
67804;SDS011;54603;45.638;11.714;2022-08-19T12:44:25;2.50;;;1.40;;
67804;SDS011;54603;45.638;11.714;2022-08-19T12:46:51;3.90;;;1.40;;
67804;SDS011;54603;45.638;11.714;2022-08-19T12:49:22;2.00;;;1.10;;
67804;SDS011;54603;45.638;11.714;2022-08-19T12:51:51;3.00;;;1.30;;
67804;SDS011;54603;45.638;11.714;2022-08-19T12:54:17;3.50;;;1.20;;
67804;SDS011;54603;45.638;11.714;2022-08-19T12:56:44;3.70;;;1.30;;
67804;SDS011;54603;45.638;11.714;2022-08-19T12:59:10;2.10;;;1.20;;
67804;SDS011;54603;45.638;11.714;2022-08-19T13:01:36;3.60;;;1.10;;
67804;SDS011;54603;45.638;11.714;2022-08-19T13:04:01;2.40;;;1.20;;
67804;SDS011;54603;45.638;11.714;2022-08-19T13:06:27;3.30;;;1.20;;
67804;SDS011;54603;45.638;11.714;2022-08-19T13:08:53;2.00;;;1.20;;
67804;SDS011;54603;45.638;11.714;2022-08-19T13:11:20;6.10;;;1.20;;
67804;SDS011;54603;45.638;11.714;2022-08-19T13:13:49;2.00;;;1.10;;
67804;SDS011;54603;45.638;11.714;2022-08-19T13:16:16;2.20;;;1.10;;
67804;SDS011;54603;45.638;11.714;2022-08-19T13:18:42;3.00;;;1.20;;
67804;SDS011;54603;45.638;11.714;2022-08-19T13:21:10;2.30;;;1.00;;
67804;SDS011;54603;45.638;11.714;2022-08-19T13:23:38;2.40;;;1.10;;
67804;SDS011;54603;45.638;11.714;2022-08-19T13:26:06;3.10;;;1.20;;
67804;SDS011;54603;45.638;11.714;2022-08-19T13:28:32;3.10;;;1.30;;
67804;SDS011;54603;45.638;11.714;2022-08-19T13:31:17;2.50;;;1.10;;
67804;SDS011;54603;45.638;11.714;2022-08-19T13:34:02;1.30;;;1.00;;
67804;SDS011;54603;45.638;11.714;2022-08-19T13:36:31;2.20;;;1.20;;
67804;SDS011;54603;45.638;11.714;2022-08-19T13:38:57;3.00;;;1.20;;
67804;SDS011;54603;45.638;11.714;2022-08-19T13:41:23;3.10;;;1.30;;
67804;SDS011;54603;45.638;11.714;2022-08-19T13:43:49;2.50;;;1.10;;
67804;SDS011;54603;45.638;11.714;2022-08-19T13:46:14;4.60;;;1.30;;
67804;SDS011;54603;45.638;11.714;2022-08-19T13:48:40;2.40;;;1.00;;
67804;SDS011;54603;45.638;11.714;2022-08-19T13:51:06;2.70;;;1.20;;
67804;SDS011;54603;45.638;11.714;2022-08-19T13:53:35;3.40;;;1.20;;
67804;SDS011;54603;45.638;11.714;2022-08-19T13:56:06;3.80;;;1.10;;
67804;SDS011;54603;45.638;11.714;2022-08-19T13:58:35;3.50;;;1.40;;
67804;SDS011;54603;45.638;11.714;2022-08-19T14:01:02;5.30;;;1.20;;
67804;SDS011;54603;45.638;11.714;2022-08-19T14:03:29;2.50;;;1.20;;
67804;SDS011;54603;45.638;11.714;2022-08-19T14:05:56;5.40;;;1.20;;
67804;SDS011;54603;45.638;11.714;2022-08-19T14:08:22;5.10;;;1.30;;
67804;SDS011;54603;45.638;11.714;2022-08-19T14:10:48;4.50;;;0.90;;
67804;SDS011;54603;45.638;11.714;2022-08-19T14:13:15;3.70;;;1.20;;
67804;SDS011;54603;45.638;11.714;2022-08-19T14:15:44;2.10;;;1.20;;
67804;SDS011;54603;45.638;11.714;2022-08-19T14:18:10;2.80;;;1.20;;
67804;SDS011;54603;45.638;11.714;2022-08-19T14:20:36;7.40;;;1.20;;
67804;SDS011;54603;45.638;11.714;2022-08-19T14:23:02;5.10;;;1.20;;
67804;SDS011;54603;45.638;11.714;2022-08-19T14:25:29;2.90;;;1.30;;
67804;SDS011;54603;45.638;11.714;2022-08-19T14:27:57;2.50;;;1.10;;
67804;SDS011;54603;45.638;11.714;2022-08-19T14:30:26;2.30;;;1.20;;
67804;SDS011;54603;45.638;11.714;2022-08-19T14:32:55;4.80;;;1.30;;
67804;SDS011;54603;45.638;11.714;2022-08-19T14:35:23;2.30;;;1.10;;
67804;SDS011;54603;45.638;11.714;2022-08-19T14:37:50;3.00;;;1.30;;
67804;SDS011;54603;45.638;11.714;2022-08-19T14:40:19;3.40;;;1.30;;
67804;SDS011;54603;45.638;11.714;2022-08-19T14:42:52;2.90;;;1.40;;
67804;SDS011;54603;45.638;11.714;2022-08-19T14:45:24;2.20;;;1.10;;
67804;SDS011;54603;45.638;11.714;2022-08-19T14:47:50;2.80;;;1.20;;
67804;SDS011;54603;45.638;11.714;2022-08-19T14:50:16;3.50;;;1.30;;
67804;SDS011;54603;45.638;11.714;2022-08-19T14:52:42;4.70;;;1.30;;
67804;SDS011;54603;45.638;11.714;2022-08-19T14:55:08;2.20;;;1.10;;
67804;SDS011;54603;45.638;11.714;2022-08-19T14:57:54;2.80;;;1.20;;